createdAt,value
2019-03-25T00:00:43.497Z,43.03
2019-03-25T00:03:14.644Z,43.70
2019-03-25T00:05:44.145Z,45.63
2019-03-25T00:08:13.678Z,45.57
2019-03-25T00:10:43.175Z,49.17
2019-03-25T00:13:12.719Z,39.13
2019-03-25T00:15:42.222Z,54.27
2019-03-25T00:18:11.766Z,45.30
2019-03-25T00:20:41.271Z,38.23
2019-03-25T00:23:10.803Z,51.93
2019-03-25T00:25:40.298Z,55.13
2019-03-25T00:28:09.842Z,47.43
2019-03-25T00:30:39.343Z,62.10
2019-03-25T00:33:08.879Z,71.83
2019-03-25T00:35:38.382Z,77.33
2019-03-25T00:38:07.933Z,77.30
2019-03-25T00:40:37.463Z,81.80
2019-03-25T00:43:06.994Z,77.70
2019-03-25T00:45:36.527Z,59.20
2019-03-25T00:48:06.030Z,72.47
2019-03-25T00:50:35.630Z,61.90
2019-03-25T00:53:05.133Z,60.33
2019-03-25T00:55:34.675Z,62.80
2019-03-25T00:58:04.171Z,58.90
2019-03-25T01:00:33.713Z,55.00
2019-03-25T01:03:03.209Z,57.00
2019-03-25T01:05:33.778Z,63.43
2019-03-25T01:08:03.281Z,56.03
2019-03-25T01:10:32.818Z,56.13
2019-03-25T01:13:02.706Z,49.67
2019-03-25T01:15:32.306Z,56.13
2019-03-25T01:18:01.949Z,55.80
2019-03-25T01:20:31.510Z,51.93
2019-03-25T01:23:01.007Z,53.80
2019-03-25T01:25:30.538Z,53.47
2019-03-25T01:28:00.039Z,51.00
2019-03-25T01:30:30.649Z,47.13
2019-03-25T01:33:00.142Z,46.20
2019-03-25T01:35:29.682Z,46.23
2019-03-25T01:37:59.187Z,43.57
2019-03-25T01:40:28.730Z,49.77
2019-03-25T01:42:58.242Z,51.43
2019-03-25T01:45:27.779Z,43.77
2019-03-25T01:47:57.269Z,44.20
2019-03-25T01:50:26.803Z,51.47
2019-03-25T01:52:56.305Z,43.57
2019-03-25T01:55:25.841Z,36.53
2019-03-25T01:57:55.338Z,43.77
2019-03-25T02:00:24.881Z,47.93
2019-03-25T02:02:54.375Z,46.90
2019-03-25T02:05:23.912Z,44.47
2019-03-25T02:07:53.412Z,39.63
2019-03-25T02:10:22.956Z,37.10
2019-03-25T02:12:52.454Z,49.13
2019-03-25T02:15:21.990Z,44.10
2019-03-25T02:17:51.507Z,37.93
2019-03-25T02:20:26.218Z,44.10
2019-03-25T02:22:52.255Z,36.27
2019-03-25T02:25:25.786Z,33.33
2019-03-25T02:27:53.035Z,36.77
2019-03-25T02:30:22.586Z,38.37
2019-03-25T02:32:52.091Z,39.93
2019-03-25T02:35:21.728Z,41.87
2019-03-25T02:37:51.222Z,46.10
2019-03-25T02:40:20.767Z,40.00
2019-03-25T02:42:50.264Z,38.43
2019-03-25T02:45:19.792Z,42.87
2019-03-25T02:47:49.295Z,33.90
2019-03-25T02:50:18.840Z,31.60
2019-03-25T02:52:48.349Z,29.23
2019-03-25T02:55:17.963Z,44.27
2019-03-25T02:57:47.496Z,46.27
2019-03-25T03:00:20.095Z,49.87
2019-03-25T03:02:49.603Z,37.13
2019-03-25T03:05:19.144Z,35.80
2019-03-25T03:07:49.653Z,39.80
2019-03-25T03:10:19.221Z,43.37
2019-03-25T03:12:48.757Z,34.13
2019-03-25T03:15:18.246Z,34.20
2019-03-25T03:17:47.779Z,46.50
2019-03-25T03:20:17.275Z,40.03
2019-03-25T03:22:46.888Z,36.97
2019-03-25T03:25:16.393Z,39.50
2019-03-25T03:27:45.936Z,38.27
2019-03-25T03:30:15.519Z,33.20
2019-03-25T03:32:45.038Z,43.00
2019-03-25T03:35:14.527Z,36.73
2019-03-25T03:37:44.066Z,36.07
2019-03-25T03:40:13.573Z,36.07
2019-03-25T03:42:43.381Z,41.90
2019-03-25T03:45:13.155Z,38.60
2019-03-25T03:47:42.692Z,41.30
2019-03-25T03:50:15.260Z,44.30
2019-03-25T03:52:46.030Z,44.30
2019-03-25T03:55:15.524Z,37.63
2019-03-25T03:57:45.400Z,44.87
2019-03-25T04:00:29.114Z,41.03
2019-03-25T04:02:59.078Z,36.70
2019-03-25T04:05:28.650Z,40.10
2019-03-25T04:07:58.334Z,34.80
2019-03-25T04:10:27.895Z,39.37
2019-03-25T04:12:57.505Z,45.53
2019-03-25T04:15:31.229Z,42.47
2019-03-25T04:18:01.355Z,44.37
2019-03-25T04:20:31.096Z,39.17
2019-03-25T04:23:00.631Z,36.80
2019-03-25T04:25:30.137Z,32.33
2019-03-25T04:27:59.679Z,42.37
2019-03-25T04:30:29.178Z,38.13
2019-03-25T04:32:58.724Z,58.87
2019-03-25T04:35:28.282Z,39.17
2019-03-25T04:37:57.820Z,45.20
2019-03-25T04:40:27.399Z,35.87
2019-03-25T04:42:57.040Z,37.43
2019-03-25T04:45:26.581Z,41.93
2019-03-25T04:47:56.115Z,38.03
2019-03-25T04:50:25.620Z,44.30
2019-03-25T04:52:55.154Z,32.60
2019-03-25T04:55:24.677Z,60.30
2019-03-25T04:57:54.194Z,82.13
2019-03-25T05:00:32.052Z,55.10
2019-03-25T05:03:01.607Z,58.90
2019-03-25T05:05:31.111Z,40.63
2019-03-25T05:08:00.650Z,35.37
2019-03-25T05:10:30.148Z,41.27
2019-03-25T05:12:59.682Z,39.67
2019-03-25T05:15:29.173Z,61.57
2019-03-25T05:17:58.707Z,81.97
2019-03-25T05:20:28.206Z,79.10
2019-03-25T05:22:57.745Z,89.73
2019-03-25T05:25:27.342Z,82.83
2019-03-25T05:27:57.083Z,79.10
2019-03-25T05:30:26.595Z,65.13
2019-03-25T05:32:56.118Z,86.73
2019-03-25T05:35:25.615Z,89.27
2019-03-25T05:37:55.133Z,98.63
2019-03-25T05:40:24.630Z,86.30
2019-03-25T05:42:54.231Z,106.20
2019-03-25T05:45:23.763Z,88.27
2019-03-25T05:47:53.299Z,84.57
2019-03-25T05:50:22.786Z,71.63
2019-03-25T05:52:52.325Z,72.33
2019-03-25T05:55:21.853Z,53.50
2019-03-25T05:57:51.376Z,53.20
2019-03-25T06:00:22.612Z,49.37
2019-03-25T06:02:52.115Z,64.53
2019-03-25T06:05:21.651Z,55.27
2019-03-25T06:07:51.155Z,49.57
2019-03-25T06:10:20.686Z,46.50
2019-03-25T06:12:50.182Z,65.87
2019-03-25T06:15:19.782Z,126.63
2019-03-25T06:17:49.274Z,63.50
2019-03-25T06:20:18.874Z,66.87
2019-03-25T06:22:48.363Z,42.57
2019-03-25T06:25:17.895Z,56.70
2019-03-25T06:27:47.386Z,51.13
2019-03-25T06:30:17.907Z,47.70
2019-03-25T06:32:47.419Z,45.50
2019-03-25T06:35:16.964Z,69.30
2019-03-25T06:37:46.458Z,50.13
2019-03-25T06:40:16.062Z,57.17
2019-03-25T06:42:45.558Z,58.37
2019-03-25T06:45:15.342Z,147.97
2019-03-25T06:47:44.877Z,108.13
2019-03-25T06:50:14.438Z,133.27
2019-03-25T06:52:43.923Z,82.90
2019-03-25T06:55:13.456Z,78.23
2019-03-25T06:57:42.949Z,50.17
2019-03-25T07:00:12.938Z,67.60
2019-03-25T07:02:43.708Z,60.57
2019-03-25T07:05:13.543Z,54.80
2019-03-25T07:07:43.038Z,59.87
2019-03-25T07:10:13.215Z,55.90
2019-03-25T07:12:42.694Z,54.23
2019-03-25T07:15:12.581Z,55.07
2019-03-25T07:17:42.068Z,53.53
2019-03-25T07:20:12.698Z,50.47
2019-03-25T07:22:42.202Z,59.30
2019-03-25T07:25:11.810Z,44.60
2019-03-25T07:27:41.611Z,41.87
2019-03-25T07:30:13.167Z,41.13
2019-03-25T07:32:42.670Z,40.07
2019-03-25T07:35:12.278Z,56.40
2019-03-25T07:37:41.772Z,42.33
2019-03-25T07:40:11.814Z,42.17
2019-03-25T07:42:42.875Z,39.47
2019-03-25T07:45:13.046Z,38.47
2019-03-25T07:47:42.546Z,33.67
2019-03-25T07:50:13.283Z,45.00
2019-03-25T07:52:42.773Z,46.90
2019-03-25T07:55:12.543Z,43.37
2019-03-25T07:57:48.223Z,44.47
2019-03-25T08:00:15.212Z,52.33
2019-03-25T08:02:44.825Z,44.53
2019-03-25T08:05:14.375Z,40.13
2019-03-25T08:07:43.938Z,38.87
2019-03-25T08:10:13.771Z,41.70
2019-03-25T08:12:43.305Z,44.00
2019-03-25T08:15:13.216Z,45.03
2019-03-25T08:17:42.711Z,32.20
2019-03-25T08:20:14.220Z,40.37
2019-03-25T08:22:43.765Z,32.33
2019-03-25T08:25:13.506Z,42.77
2019-03-25T08:27:43.034Z,35.07
2019-03-25T08:30:12.868Z,29.07
2019-03-25T08:32:42.478Z,30.47
2019-03-25T08:35:12.510Z,33.03
2019-03-25T08:37:42.048Z,40.30
2019-03-25T08:40:12.184Z,36.53
2019-03-25T08:42:41.725Z,36.87
2019-03-25T08:45:11.529Z,31.33
2019-03-25T08:47:41.270Z,29.87
2019-03-25T08:50:11.011Z,46.93
2019-03-25T08:52:40.550Z,30.77
2019-03-25T08:55:10.192Z,35.23
2019-03-25T08:57:39.813Z,32.93
2019-03-25T09:00:12.295Z,29.67
2019-03-25T09:02:42.882Z,30.37
2019-03-25T09:05:12.619Z,27.13
2019-03-25T09:07:42.159Z,31.87
2019-03-25T09:10:12.389Z,21.83
2019-03-25T09:12:42.025Z,20.73
2019-03-25T09:15:12.814Z,23.63
2019-03-25T09:17:42.347Z,27.37
2019-03-25T09:20:12.398Z,26.30
2019-03-25T09:22:43.166Z,30.53
2019-03-25T09:25:12.798Z,22.53
2019-03-25T09:27:42.358Z,29.53
2019-03-25T09:30:12.650Z,24.07
2019-03-25T09:32:42.198Z,25.63
2019-03-25T09:35:11.930Z,22.50
2019-03-25T09:37:41.555Z,23.73
2019-03-25T09:40:12.286Z,28.23
2019-03-25T09:42:41.841Z,28.57
2019-03-25T09:45:11.870Z,27.27
2019-03-25T09:47:41.429Z,22.70
2019-03-25T09:50:11.235Z,22.67
2019-03-25T09:52:40.766Z,21.67
2019-03-25T09:55:10.452Z,21.97
2019-03-25T09:57:39.942Z,28.13
2019-03-25T10:00:12.830Z,32.77
2019-03-25T10:02:42.572Z,27.27
2019-03-25T10:05:13.000Z,17.33
2019-03-25T10:07:42.566Z,17.77
2019-03-25T10:10:12.552Z,17.53
2019-03-25T10:12:42.677Z,18.03
2019-03-25T10:15:12.385Z,16.27
2019-03-25T10:17:42.048Z,23.30
2019-03-25T10:20:12.514Z,19.92
2019-03-25T10:22:42.064Z,21.03
2019-03-25T10:25:13.557Z,15.10
2019-03-25T10:27:43.052Z,17.77
2019-03-25T10:30:14.828Z,21.23
2019-03-25T10:32:44.386Z,22.47
2019-03-25T10:35:15.139Z,18.87
2019-03-25T10:37:45.205Z,25.53
2019-03-25T10:40:15.059Z,19.03
2019-03-25T10:42:44.719Z,20.90
2019-03-25T10:45:14.721Z,20.73
2019-03-25T10:47:44.324Z,38.87
2019-03-25T10:50:14.376Z,23.67
2019-03-25T10:52:43.806Z,26.33
2019-03-25T10:55:13.479Z,22.83
2019-03-25T10:57:42.985Z,23.17
2019-03-25T11:00:13.835Z,20.00
2019-03-25T11:02:43.564Z,26.27
2019-03-25T11:05:13.244Z,22.20
2019-03-25T11:10:12.550Z,24.57
2019-03-25T11:12:42.038Z,24.40
2019-03-25T11:15:12.212Z,21.77
2019-03-25T11:17:41.701Z,26.20
2019-03-25T11:20:11.670Z,25.13
2019-03-25T11:22:41.167Z,21.03
2019-03-25T11:25:12.135Z,21.67
2019-03-25T11:27:41.615Z,17.63
2019-03-25T11:30:12.782Z,22.03
2019-03-25T11:32:42.282Z,22.53
2019-03-25T11:35:12.563Z,27.50
2019-03-25T11:37:42.059Z,23.87
2019-03-25T11:40:12.019Z,19.67
2019-03-25T11:42:41.523Z,22.00
2019-03-25T11:45:13.085Z,21.80
2019-03-25T11:47:42.578Z,24.23
2019-03-25T11:50:12.438Z,19.97
2019-03-25T11:52:41.922Z,24.87
2019-03-25T11:55:11.522Z,18.73
2019-03-25T11:57:41.011Z,17.83
2019-03-25T12:00:10.678Z,20.37
2019-03-25T12:02:40.170Z,19.50
2019-03-25T12:05:09.827Z,25.20
2019-03-25T12:07:39.323Z,21.43
2019-03-25T12:10:09.022Z,23.83
2019-03-25T12:12:38.509Z,23.33
2019-03-25T12:15:08.584Z,20.53
2019-03-25T12:17:38.069Z,22.13
2019-03-25T12:20:08.146Z,22.10
2019-03-25T12:22:37.671Z,20.83
2019-03-25T12:25:08.114Z,21.37
2019-03-25T12:27:37.643Z,24.50
2019-03-25T12:30:09.506Z,27.73
2019-03-25T12:32:39.034Z,26.73
2019-03-25T12:35:08.784Z,24.07
2019-03-25T12:37:38.318Z,31.33
2019-03-25T12:40:08.255Z,35.67
2019-03-25T12:42:37.962Z,41.63
2019-03-25T12:45:07.994Z,41.77
2019-03-25T12:47:38.500Z,33.53
2019-03-25T12:50:08.679Z,36.93
2019-03-25T12:52:38.213Z,41.40
2019-03-25T12:55:07.866Z,44.67
2019-03-25T12:57:37.374Z,36.43
2019-03-25T13:00:07.603Z,34.43
2019-03-25T13:02:37.236Z,38.43
2019-03-25T13:05:07.166Z,40.40
2019-03-25T13:07:36.700Z,53.97
2019-03-25T13:10:07.340Z,46.30
2019-03-25T13:12:36.868Z,45.87
2019-03-25T13:15:08.394Z,45.47
2019-03-25T13:17:37.990Z,50.20
2019-03-25T13:20:08.029Z,47.70
2019-03-25T13:22:37.564Z,58.83
2019-03-25T13:25:07.126Z,47.57
2019-03-25T13:27:36.658Z,57.17
2019-03-25T13:30:09.617Z,53.43
2019-03-25T13:32:39.155Z,58.07
2019-03-25T13:35:08.985Z,58.27
2019-03-25T13:37:38.529Z,62.33
2019-03-25T13:40:08.366Z,56.53
2019-03-25T13:42:37.898Z,44.83
2019-03-25T13:45:07.834Z,40.27
2019-03-25T13:47:37.520Z,45.13
2019-03-25T13:50:07.451Z,37.47
2019-03-25T13:52:36.987Z,41.03
2019-03-25T13:55:07.418Z,36.03
2019-03-25T13:57:37.917Z,37.67
2019-03-25T14:00:07.956Z,35.93
2019-03-25T14:02:37.478Z,41.43
2019-03-25T14:05:07.114Z,49.23
2019-03-25T14:07:37.621Z,49.90
2019-03-25T14:10:10.476Z,47.53
2019-03-25T14:12:40.030Z,45.77
2019-03-25T14:15:11.787Z,44.13
2019-03-25T14:17:41.422Z,42.20
2019-03-25T14:20:12.210Z,33.73
2019-03-25T14:22:41.759Z,29.23
2019-03-25T14:25:11.996Z,39.53
2019-03-25T14:27:41.555Z,33.17
2019-03-25T14:30:14.903Z,40.90
2019-03-25T14:32:42.870Z,33.80
2019-03-25T14:35:12.470Z,35.43
2019-03-25T14:37:42.027Z,35.03
2019-03-25T14:40:11.586Z,37.33
2019-03-25T14:42:41.199Z,50.00
2019-03-25T14:45:11.037Z,26.40
2019-03-25T14:47:40.598Z,31.87
2019-03-25T14:50:11.127Z,35.83
2019-03-25T14:52:40.750Z,41.37
2019-03-25T14:55:10.475Z,54.90
2019-03-25T14:57:40.054Z,53.40
2019-03-25T15:00:11.120Z,62.53
2019-03-25T15:02:40.662Z,57.27
2019-03-25T15:05:10.444Z,30.50
2019-03-25T15:07:39.938Z,27.60
2019-03-25T15:10:09.610Z,90.27
2019-03-25T15:12:39.115Z,137.87
2019-03-25T15:15:11.132Z,113.60
2019-03-25T15:17:40.699Z,55.30
2019-03-25T15:20:10.479Z,45.93
2019-03-25T15:22:39.981Z,40.10
2019-03-25T15:25:09.745Z,41.73
2019-03-25T15:27:39.244Z,51.33
2019-03-25T15:30:10.621Z,36.27
2019-03-25T15:32:40.119Z,37.07
2019-03-25T15:35:10.495Z,38.33
2019-03-25T15:37:39.998Z,36.20
2019-03-25T15:40:11.203Z,37.00
2019-03-25T15:42:40.738Z,33.80
2019-03-25T15:45:10.607Z,29.33
2019-03-25T15:47:40.718Z,26.87
2019-03-25T15:50:10.612Z,28.53
2019-03-25T15:52:40.176Z,29.60
2019-03-25T15:55:11.049Z,28.23
2019-03-25T15:57:40.692Z,23.40
2019-03-25T16:00:13.675Z,27.30
2019-03-25T16:02:43.306Z,27.73
2019-03-25T16:05:12.915Z,32.83
2019-03-25T16:07:42.407Z,90.43
2019-03-25T16:10:13.745Z,92.63
2019-03-25T16:12:43.242Z,59.13
2019-03-25T16:15:13.596Z,87.83
2019-03-25T16:17:43.385Z,73.23
2019-03-25T16:20:13.260Z,93.67
2019-03-25T16:22:42.756Z,95.30
2019-03-25T16:25:15.364Z,87.40
2019-03-25T16:27:44.854Z,69.50
2019-03-25T16:30:14.471Z,51.30
2019-03-25T16:32:43.982Z,56.33
2019-03-25T16:35:13.511Z,60.03
2019-03-25T16:37:42.999Z,58.67
2019-03-25T16:40:12.614Z,59.03
2019-03-25T16:42:42.103Z,73.60
2019-03-25T16:45:12.094Z,52.83
2019-03-25T16:47:41.596Z,57.90
2019-03-25T16:50:11.189Z,58.13
2019-03-25T16:52:41.654Z,68.13
2019-03-25T16:55:11.274Z,68.77
2019-03-25T16:57:40.775Z,43.47
2019-03-25T17:00:11.019Z,45.27
2019-03-25T17:02:40.518Z,42.13
2019-03-25T17:05:10.126Z,38.87
2019-03-25T17:07:39.730Z,47.70
2019-03-25T17:10:09.406Z,52.57
2019-03-25T17:12:38.908Z,57.60
2019-03-25T17:15:08.896Z,57.57
2019-03-25T17:17:38.436Z,107.03
2019-03-25T17:20:08.098Z,137.10
2019-03-25T17:22:37.910Z,124.30
2019-03-25T17:25:07.750Z,156.27
2019-03-25T17:27:37.292Z,154.40
2019-03-25T17:30:15.983Z,170.70
2019-03-25T17:32:45.514Z,147.50
2019-03-25T17:35:15.019Z,173.83
2019-03-25T17:37:44.647Z,151.50
2019-03-25T17:40:14.372Z,187.17
2019-03-25T17:42:43.926Z,150.73
2019-03-25T17:45:13.667Z,169.40
2019-03-25T17:47:44.171Z,133.27
2019-03-25T17:50:14.969Z,126.17
2019-03-25T17:52:44.512Z,113.47
2019-03-25T17:55:14.248Z,117.00
2019-03-25T17:57:43.859Z,109.43
2019-03-25T18:00:13.861Z,126.43
2019-03-25T18:02:43.566Z,132.50
2019-03-25T18:05:13.235Z,142.07
2019-03-25T18:07:42.778Z,159.07
2019-03-25T18:10:12.270Z,153.77
2019-03-25T18:12:41.843Z,147.53
2019-03-25T18:15:12.038Z,87.33
2019-03-25T18:17:41.570Z,61.37
2019-03-25T18:20:18.534Z,58.57
2019-03-25T18:22:42.354Z,44.90
2019-03-25T18:25:11.846Z,50.53
2019-03-25T18:27:41.397Z,38.43
2019-03-25T18:30:11.239Z,30.70
2019-03-25T18:32:40.783Z,29.23
2019-03-25T18:35:13.338Z,25.00
2019-03-25T18:37:42.870Z,33.60
2019-03-25T18:40:12.430Z,36.67
2019-03-25T18:42:42.938Z,80.30
2019-03-25T18:45:12.574Z,63.97
2019-03-25T18:47:42.127Z,60.63
2019-03-25T18:50:11.755Z,55.03
2019-03-25T18:52:41.307Z,55.23
2019-03-25T18:55:10.941Z,48.50
2019-03-25T18:57:40.483Z,45.97
2019-03-25T19:00:12.045Z,60.20
2019-03-25T19:02:41.606Z,48.93
2019-03-25T19:05:11.366Z,54.50
2019-03-25T19:07:44.142Z,43.10
2019-03-25T19:10:16.722Z,49.63
2019-03-25T19:12:46.246Z,50.10
2019-03-25T19:15:15.751Z,43.03
2019-03-25T19:17:45.279Z,46.57
2019-03-25T19:20:14.810Z,52.17
2019-03-25T19:22:44.409Z,52.73
2019-03-25T19:25:14.021Z,118.67
2019-03-25T19:27:43.490Z,94.87
2019-03-25T19:30:13.768Z,125.00
2019-03-25T19:32:43.334Z,193.37
2019-03-25T19:35:13.014Z,176.43
2019-03-25T19:37:42.491Z,108.67
2019-03-25T19:40:12.183Z,101.57
2019-03-25T19:42:41.713Z,90.23
2019-03-25T19:45:11.638Z,128.80
2019-03-25T19:47:41.151Z,151.83
2019-03-25T19:50:11.535Z,157.50
2019-03-25T19:52:41.105Z,166.57
2019-03-25T19:55:11.047Z,158.53
2019-03-25T19:57:40.483Z,195.27
2019-03-25T20:00:10.673Z,191.57
2019-03-25T20:02:40.260Z,188.87
2019-03-25T20:05:09.938Z,174.77
2019-03-25T20:07:39.502Z,193.13
2019-03-25T20:10:12.192Z,202.07
2019-03-25T20:12:41.719Z,173.00
2019-03-25T20:15:11.340Z,144.00
2019-03-25T20:17:41.852Z,148.63
2019-03-25T20:20:11.477Z,147.43
2019-03-25T20:22:40.999Z,123.63
2019-03-25T20:25:10.556Z,132.73
2019-03-25T20:27:40.048Z,134.33
2019-03-25T20:30:11.490Z,124.30
2019-03-25T20:32:41.046Z,95.13
2019-03-25T20:35:10.711Z,80.50
2019-03-25T20:37:40.159Z,91.07
2019-03-25T20:40:10.203Z,89.30
2019-03-25T20:42:39.802Z,93.20
2019-03-25T20:45:09.510Z,97.70
2019-03-25T20:47:39.048Z,116.50
2019-03-25T20:50:09.816Z,116.03
2019-03-25T20:52:39.265Z,131.23
2019-03-25T20:55:08.954Z,143.17
2019-03-25T20:57:40.706Z,132.67
2019-03-25T21:00:11.529Z,147.87
2019-03-25T21:02:45.182Z,131.63
2019-03-25T21:05:14.073Z,146.73
2019-03-25T21:07:43.583Z,126.93
2019-03-25T21:10:14.292Z,130.93
2019-03-25T21:12:43.809Z,142.43
2019-03-25T21:15:13.570Z,143.67
2019-03-25T21:17:43.071Z,155.97
2019-03-25T21:20:13.198Z,160.60
2019-03-25T21:22:42.768Z,140.87
2019-03-25T21:25:12.434Z,130.93
2019-03-25T21:27:41.958Z,142.07
2019-03-25T21:30:11.837Z,144.03
2019-03-25T21:32:41.406Z,160.07
2019-03-25T21:35:11.126Z,141.17
2019-03-25T21:37:40.753Z,129.63
2019-03-25T21:40:10.414Z,133.57
2019-03-25T21:42:40.328Z,133.50
2019-03-25T21:45:10.432Z,126.83
2019-03-25T21:47:40.166Z,127.20
2019-03-25T21:50:11.340Z,119.77
2019-03-25T21:52:40.944Z,121.00
2019-03-25T21:55:10.654Z,115.63
2019-03-25T21:57:40.313Z,113.67
2019-03-25T22:00:11.585Z,107.87
2019-03-25T22:02:41.258Z,115.13
2019-03-25T22:05:10.895Z,106.17
2019-03-25T22:07:40.530Z,94.27
2019-03-25T22:10:10.273Z,90.10
2019-03-25T22:12:41.024Z,92.20
2019-03-25T22:15:11.426Z,89.23
2019-03-25T22:17:40.974Z,87.97
2019-03-25T22:20:11.129Z,89.43
2019-03-25T22:22:41.692Z,98.90
2019-03-25T22:25:11.427Z,127.00
2019-03-25T22:27:41.002Z,140.63
2019-03-25T22:30:12.239Z,138.90
2019-03-25T22:32:41.777Z,137.23
2019-03-25T22:35:11.346Z,131.20
2019-03-25T22:37:40.911Z,114.47
2019-03-25T22:40:10.650Z,127.37
2019-03-25T22:42:40.192Z,116.40
2019-03-25T22:45:09.763Z,111.83
2019-03-25T22:47:39.311Z,100.60
2019-03-25T22:50:10.651Z,110.07
2019-03-25T22:52:40.185Z,111.70
2019-03-25T22:55:10.229Z,101.93
2019-03-25T22:57:39.889Z,110.83
2019-03-25T23:00:09.625Z,96.57
2019-03-25T23:02:40.810Z,100.63
2019-03-25T23:05:10.373Z,106.97
2019-03-25T23:07:41.001Z,116.33
2019-03-25T23:10:10.570Z,113.90
2019-03-25T23:12:40.125Z,102.80
2019-03-25T23:15:09.703Z,100.03
2019-03-25T23:17:39.259Z,90.93
2019-03-25T23:20:09.090Z,92.17
2019-03-25T23:22:38.631Z,112.33
2019-03-25T23:25:08.475Z,90.50
2019-03-25T23:27:38.079Z,96.50
2019-03-25T23:30:08.705Z,98.50
2019-03-25T23:32:38.311Z,96.70
2019-03-25T23:35:07.951Z,95.40
2019-03-25T23:37:37.711Z,87.93
2019-03-25T23:40:07.685Z,97.53
2019-03-25T23:42:37.235Z,84.20
2019-03-25T23:45:09.500Z,98.00
2019-03-25T23:47:39.118Z,94.77
2019-03-25T23:50:08.763Z,107.70
2019-03-25T23:52:38.342Z,96.03
2019-03-25T23:55:07.906Z,99.37
2019-03-25T23:57:37.464Z,106.23
